Time;durP1;ratioP1;P1;durP2;ratioP2;P2;SDS_P1;SDS_P2;PMS_P1;PMS_P2;Temp;Humidity;BMP_temperature;BMP_pressure;BME280_temperature;BME280_humidity;BME280_pressure;Samples;Min_cycle;Max_cycle;Signal;HPM_P1;HPM_P2
2023/09/02 00:01:13;;;;;;;3.83;1.80;;;;;;;14.32;100.00;100269.44;5010064;28;20241;-68
2023/09/02 00:03:38;;;;;;;2.23;1.57;;;;;;;14.36;100.00;100257.97;5017430;28;20639;-68
2023/09/02 00:06:03;;;;;;;1.70;1.57;;;;;;;14.32;100.00;100255.69;5010742;28;20197;-67
2023/09/02 00:08:28;;;;;;;2.80;1.70;;;;;;;14.24;100.00;100240.69;5011383;28;20182;-67
2023/09/02 00:10:54;;;;;;;2.93;1.60;;;;;;;14.11;100.00;100245.84;5009923;28;20382;-67
2023/09/02 00:13:19;;;;;;;2.53;1.90;;;;;;;14.08;100.00;100251.22;5021339;28;20210;-67
2023/09/02 00:15:44;;;;;;;2.77;1.73;;;;;;;14.09;100.00;100250.31;5029831;28;20190;-67
2023/09/02 00:18:09;;;;;;;1.77;1.67;;;;;;;14.16;100.00;100245.53;5031606;28;20182;-67
2023/09/02 00:20:35;;;;;;;3.40;1.67;;;;;;;14.15;100.00;100243.88;5020659;28;20222;-67
2023/09/02 00:23:00;;;;;;;1.93;1.70;;;;;;;14.17;100.00;100250.59;5022501;28;20310;-67
2023/09/02 00:25:26;;;;;;;3.97;2.03;;;;;;;14.11;100.00;100245.84;5011413;28;20178;-67
2023/09/02 00:27:52;;;;;;;5.63;1.40;;;;;;;14.05;100.00;100248.81;5010345;28;20646;-67
2023/09/02 00:30:17;;;;;;;1.80;1.57;;;;;;;14.08;100.00;100252.97;5003328;28;20212;-67
2023/09/02 00:32:42;;;;;;;1.80;1.70;;;;;;;14.09;100.00;100254.63;5025268;28;20187;-67
2023/09/02 00:35:09;;;;;;;3.90;1.90;;;;;;;14.10;100.00;100254.50;5010908;28;20262;-67
2023/09/02 00:37:34;;;;;;;4.70;1.80;;;;;;;14.06;100.00;100260.03;5010089;28;20183;-67
2023/09/02 00:39:59;;;;;;;1.43;1.33;;;;;;;14.06;100.00;100260.03;5011443;28;20638;-67
2023/09/02 00:42:28;;;;;;;3.07;1.43;;;;;;;13.99;100.00;100270.78;5036432;28;20307;-67
2023/09/02 00:44:54;;;;;;;1.47;1.37;;;;;;;13.94;100.00;100265.09;5031228;28;20668;-68
2023/09/02 00:47:19;;;;;;;1.80;1.70;;;;;;;13.74;100.00;100276.69;5034975;28;20174;-67
2023/09/02 00:49:44;;;;;;;2.33;2.10;;;;;;;13.73;100.00;100272.50;5034416;28;20182;-68
2023/09/02 00:52:10;;;;;;;2.67;2.30;;;;;;;13.84;100.00;100280.38;5022886;28;20233;-67
2023/09/02 00:54:35;;;;;;;2.37;2.03;;;;;;;13.88;100.00;100281.81;5014421;28;20207;-67
2023/09/02 00:57:01;;;;;;;3.63;2.40;;;;;;;13.81;100.00;100280.56;5014926;28;20207;-67
2023/09/02 00:59:26;;;;;;;3.67;2.30;;;;;;;13.70;100.00;100278.66;5014676;28;20205;-67
2023/09/02 01:01:55;;;;;;;3.10;2.13;;;;;;;13.71;100.00;100287.25;5023032;28;20257;-67
2023/09/02 01:04:21;;;;;;;6.40;2.37;;;;;;;13.80;100.00;100284.06;5030718;28;20604;-67
2023/09/02 01:06:47;;;;;;;5.63;3.10;;;;;;;13.72;100.00;100286.34;5034491;28;20178;-67
2023/09/02 01:09:13;;;;;;;4.27;3.37;;;;;;;13.75;100.00;100283.53;5034256;28;20178;-67
2023/09/02 01:11:38;;;;;;;3.07;2.87;;;;;;;13.82;100.00;100281.41;5001753;28;20234;-67
2023/09/02 01:14:03;;;;;;;3.23;2.93;;;;;;;13.84;100.00;100289.88;4994249;28;20206;-68
2023/09/02 01:16:29;;;;;;;4.13;3.10;;;;;;;13.84;100.00;100295.03;5014584;28;20588;-67
2023/09/02 01:18:55;;;;;;;6.03;3.40;;;;;;;13.84;100.00;100288.13;5014602;28;20183;-67
2023/09/02 01:21:43;;;;;;;7.90;3.20;;;;;;;13.72;100.00;100294.91;5033084;28;20668;-67
2023/09/02 01:24:24;;;;;;;3.73;3.33;;;;;;;13.72;100.00;100292.31;5023872;28;20189;-67
2023/09/02 01:27:16;;;;;;;3.57;2.70;;;;;;;13.72;100.00;100296.69;5034455;28;20186;-68
2023/09/02 01:30:01;;;;;;;3.93;3.40;;;;;;;13.65;100.00;100301.41;5033867;28;20185;-68
2023/09/02 01:32:33;;;;;;;4.33;3.70;;;;;;;13.68;100.00;100306.38;5022723;28;20222;-68
2023/09/02 01:35:03;;;;;;;3.20;2.90;;;;;;;13.68;100.00;100310.72;5033426;28;20202;-67
2023/09/02 01:37:30;;;;;;;3.53;3.23;;;;;;;13.70;100.00;100303.69;5034281;28;20178;-67
2023/09/02 01:39:57;;;;;;;3.20;2.90;;;;;;;13.75;100.00;100306.81;5032795;28;20196;-67
2023/09/02 01:42:23;;;;;;;3.33;3.03;;;;;;;13.71;100.00;100319.09;5023281;28;20704;-66
2023/09/02 01:44:48;;;;;;;3.60;3.27;;;;;;;13.71;100.00;100318.28;5033509;28;20197;-67
2023/09/02 01:47:15;;;;;;;3.40;3.20;;;;;;;13.70;100.00;100319.22;5032575;28;20236;-67
2023/09/02 01:49:41;;;;;;;3.47;3.27;;;;;;;13.70;100.00;100314.03;5033288;28;20166;-68
2023/09/02 01:52:06;;;;;;;3.43;3.13;;;;;;;13.66;100.00;100313.41;5024990;28;20244;-68
2023/09/02 01:54:32;;;;;;;4.30;3.37;;;;;;;13.59;100.00;100319.88;5029415;28;20715;-68
2023/09/02 01:56:57;;;;;;;4.67;3.80;;;;;;;13.56;100.00;100315.75;5033024;28;20265;-67
2023/09/02 01:59:23;;;;;;;4.33;3.93;;;;;;;13.51;100.00;100314.38;5032128;28;20202;-66
2023/09/02 02:01:48;;;;;;;4.70;4.00;;;;;;;13.48;100.00;100314.56;5036425;28;20249;-67
2023/09/02 02:04:25;;;;;;;4.53;4.10;;;;;;;13.35;100.00;100317.09;5034835;28;20175;-67
2023/09/02 02:06:56;;;;;;;5.07;4.60;;;;;;;13.42;100.00;100308.06;5033462;28;20185;-68
2023/09/02 02:09:40;;;;;;;5.47;4.13;;;;;;;13.38;100.00;100317.75;5032824;28;20261;-67
2023/09/02 02:12:07;;;;;;;6.77;4.10;;;;;;;13.45;100.00;100322.53;5036499;28;20294;-67
2023/09/02 02:14:33;;;;;;;5.23;3.80;;;;;;;13.47;100.00;100329.25;5032856;28;20284;-67
2023/09/02 02:16:58;;;;;;;8.80;3.93;;;;;;;13.42;100.00;100330.47;5031759;28;20185;-67
2023/09/02 02:19:24;;;;;;;4.40;4.10;;;;;;;13.39;100.00;100323.72;5033111;28;20185;-67
2023/09/02 02:21:49;;;;;;;4.27;3.97;;;;;;;13.33;100.00;100324.09;5024172;28;20618;-67
2023/09/02 02:24:14;;;;;;;4.40;3.70;;;;;;;13.32;100.00;100323.28;5034441;28;20190;-67
2023/09/02 02:26:40;;;;;;;4.20;3.57;;;;;;;13.29;100.00;100325.22;5033115;28;20174;-67
2023/09/02 02:29:05;;;;;;;4.10;3.80;;;;;;;13.29;100.00;100330.38;5013048;28;20186;-67
2023/09/02 02:31:30;;;;;;;4.40;3.67;;;;;;;13.30;100.00;100332.03;5024737;28;20252;-67
2023/09/02 02:33:55;;;;;;;5.27;3.90;;;;;;;13.28;100.00;100333.88;5036400;28;20198;-67
2023/09/02 02:36:21;;;;;;;4.40;3.67;;;;;;;13.26;100.00;100336.56;5032286;28;20196;-67
2023/09/02 02:38:46;;;;;;;5.87;4.00;;;;;;;13.20;100.00;100337.75;5020213;28;20536;-68
2023/09/02 02:41:11;;;;;;;5.37;4.97;;;;;;;13.15;100.00;100336.41;5015001;28;20249;-67
2023/09/02 02:43:36;;;;;;;5.50;4.30;;;;;;;13.19;100.00;100338.69;5019541;28;20198;-68
2023/09/02 02:46:02;;;;;;;8.10;4.70;;;;;;;13.21;100.00;100336.84;5012285;28;20206;-67
2023/09/02 02:48:29;;;;;;;7.73;4.80;;;;;;;13.19;100.00;100340.44;5012945;28;20187;-67
2023/09/02 02:50:55;;;;;;;4.70;4.37;;;;;;;13.16;100.00;100340.63;5014069;28;20700;-67
2023/09/02 02:53:21;;;;;;;4.30;3.90;;;;;;;13.20;100.00;100342.94;5030430;28;20213;-67
2023/09/02 02:55:46;;;;;;;4.67;4.27;;;;;;;13.20;100.00;100336.94;5031838;28;20276;-68
2023/09/02 02:58:12;;;;;;;5.20;3.83;;;;;;;13.23;100.00;100337.59;5031277;28;20173;-68
2023/09/02 03:00:39;;;;;;;6.43;4.20;;;;;;;13.32;100.00;100345.69;5021814;28;20230;-68
2023/09/02 03:03:04;;;;;;;6.03;5.43;;;;;;;13.37;100.00;100339.34;5023173;28;20186;-68
2023/09/02 03:05:35;;;;;;;15.53;7.60;;;;;;;13.36;100.00;100345.41;5011983;28;20175;-68
2023/09/02 03:08:00;;;;;;;21.20;8.47;;;;;;;13.52;100.00;100339.28;5012057;28;20228;-67
2023/09/02 03:10:25;;;;;;;40.93;10.33;;;;;;;13.59;100.00;100342.31;5005700;28;20312;-68
2023/09/02 03:12:51;;;;;;;55.67;10.27;;;;;;;13.64;100.00;100348.84;5025090;28;20186;-67
2023/09/02 03:15:16;;;;;;;48.73;11.37;;;;;;;13.69;100.00;100352.00;5025639;28;20680;-68
2023/09/02 03:17:41;;;;;;;73.07;11.13;;;;;;;13.63;100.00;100346.38;5031891;28;20191;-67
2023/09/02 03:20:07;;;;;;;45.70;11.13;;;;;;;13.66;100.00;100352.16;5021724;28;20189;-68
2023/09/02 03:22:32;;;;;;;40.70;11.00;;;;;;;13.72;100.00;100353.56;5010975;28;20258;-67
2023/09/02 03:24:58;;;;;;;27.83;10.90;;;;;;;13.74;100.00;100350.84;5011784;28;20190;-67
2023/09/02 03:27:23;;;;;;;83.97;12.90;;;;;;;13.77;100.00;100361.84;5011025;28;20195;-67
2023/09/02 03:29:49;;;;;;;67.00;12.23;;;;;;;13.75;100.00;100358.50;5012014;28;20194;-67
2023/09/02 03:32:14;;;;;;;38.87;10.17;;;;;;;13.81;100.00;100362.47;4980971;28;20241;-67
2023/09/02 03:34:39;;;;;;;49.43;11.40;;;;;;;13.84;100.00;100370.88;5011579;28;20312;-68
2023/09/02 03:37:04;;;;;;;35.30;10.73;;;;;;;13.76;100.00;100373.09;5010742;28;20194;-67
2023/09/02 03:39:33;;;;;;;22.37;9.90;;;;;;;13.81;100.00;100375.41;5001470;28;20187;-67
2023/09/02 03:41:58;;;;;;;13.63;10.17;;;;;;;13.75;100.00;100374.03;5016550;28;20298;-67
2023/09/02 03:44:23;;;;;;;27.83;10.90;;;;;;;13.71;100.00;100369.97;5010426;28;20273;-67
2023/09/02 03:46:50;;;;;;;20.63;8.83;;;;;;;13.49;100.00;100367.91;5010437;28;20189;-67
2023/09/02 03:49:15;;;;;;;17.00;9.73;;;;;;;13.54;100.00;100365.88;5012037;28;20226;-67
2023/09/02 03:51:42;;;;;;;14.87;9.30;;;;;;;13.54;100.00;100358.97;5012553;28;20262;-68
2023/09/02 03:54:08;;;;;;;27.57;9.90;;;;;;;13.53;100.00;100361.63;5004339;28;20269;-67
2023/09/02 03:56:36;;;;;;;30.67;9.93;;;;;;;13.45;100.00;100366.47;5010733;28;20178;-68
2023/09/02 03:59:02;;;;;;;12.43;9.17;;;;;;;13.47;100.00;100370.59;5011560;28;20191;-67
2023/09/02 04:01:27;;;;;;;14.83;10.37;;;;;;;13.53;100.00;100371.97;5012680;28;20253;-68
2023/09/02 04:03:53;;;;;;;15.50;9.67;;;;;;;13.60;100.00;100377.59;5015997;28;20217;-67
2023/09/02 04:06:18;;;;;;;10.93;9.17;;;;;;;13.59;100.00;100373.34;5011563;28;20240;-68
2023/09/02 04:08:43;;;;;;;15.93;9.27;;;;;;;13.62;100.00;100378.31;5011839;28;20545;-68
2023/09/02 04:11:08;;;;;;;25.80;11.13;;;;;;;13.69;100.00;100379.59;5010669;28;20226;-67
2023/09/02 04:13:34;;;;;;;16.07;11.03;;;;;;;13.69;100.00;100382.16;5017935;28;20567;-68
2023/09/02 04:16:03;;;;;;;21.03;10.93;;;;;;;13.66;100.00;100374.63;5011480;28;20210;-67
2023/09/02 04:18:30;;;;;;;17.73;10.83;;;;;;;13.64;100.00;100374.69;5010559;28;20267;-67
2023/09/02 04:20:55;;;;;;;15.73;10.57;;;;;;;13.80;100.00;100384.09;4999193;28;20214;-67
2023/09/02 04:23:22;;;;;;;16.73;11.27;;;;;;;13.88;100.00;100384.44;5022311;28;20233;-67
2023/09/02 04:25:49;;;;;;;31.60;11.03;;;;;;;13.84;100.00;100378.63;5002251;28;20643;-67
2023/09/02 04:28:14;;;;;;;28.77;11.60;;;;;;;13.86;100.00;100381.09;5015380;28;20312;-68
2023/09/02 04:30:40;;;;;;;33.13;11.83;;;;;;;13.86;100.00;100381.09;5007290;28;20317;-67
2023/09/02 04:33:06;;;;;;;19.17;11.73;;;;;;;13.94;100.00;100385.78;5025823;28;20209;-68
2023/09/02 04:35:49;;;;;;;19.67;12.00;;;;;;;13.98;100.00;100382.91;5013861;28;20186;-67
2023/09/02 04:38:15;;;;;;;15.27;10.80;;;;;;;14.06;100.00;100386.75;5003517;28;20198;-67
2023/09/02 04:40:41;;;;;;;15.63;10.87;;;;;;;13.92;100.00;100378.13;5004564;28;20670;-67
2023/09/02 04:43:07;;;;;;;15.43;11.17;;;;;;;14.02;100.00;100375.78;5005915;28;20190;-68
2023/09/02 04:45:34;;;;;;;15.23;11.40;;;;;;;13.96;100.00;100387.34;5011081;28;20262;-67
2023/09/02 04:48:00;;;;;;;16.43;11.77;;;;;;;14.08;100.00;100384.88;5014075;28;20189;-67
2023/09/02 04:50:25;;;;;;;17.27;11.80;;;;;;;14.10;100.00;100381.25;5005750;28;20233;-67
2023/09/02 04:52:50;;;;;;;13.60;10.50;;;;;;;14.18;100.00;100373.84;5010913;28;20197;-67
2023/09/02 04:55:16;;;;;;;17.67;11.20;;;;;;;14.22;100.00;100378.84;4997127;28;20280;-67
2023/09/02 04:57:41;;;;;;;15.70;10.70;;;;;;;14.23;100.00;100381.31;5014555;28;20285;-67
2023/09/02 05:00:07;;;;;;;14.27;10.80;;;;;;;14.24;100.00;100382.13;5004037;28;20664;-67
2023/09/02 05:02:33;;;;;;;23.93;10.97;;;;;;;14.22;100.00;100371.88;5029481;28;20261;-67
2023/09/02 05:04:58;;;;;;;18.67;11.97;;;;;;;14.22;100.00;100387.41;5014687;28;20213;-67
2023/09/02 05:07:23;;;;;;;26.57;12.50;;;;;;;14.23;100.00;100383.91;5014667;28;20186;-68
2023/09/02 05:09:51;;;;;;;20.87;13.00;;;;;;;14.28;100.00;100379.25;5014440;28;20179;-68
2023/09/02 05:12:16;;;;;;;26.40;13.07;;;;;;;14.40;100.00;100387.13;5019773;28;20367;-68
2023/09/02 05:14:41;;;;;;;30.30;12.77;;;;;;;14.44;100.00;100383.44;5013853;28;20713;-67
2023/09/02 05:17:06;;;;;;;23.53;11.90;;;;;;;14.54;100.00;100384.47;5014603;28;20198;-66
2023/09/02 05:19:32;;;;;;;36.63;12.73;;;;;;;14.60;100.00;100385.78;5014491;28;20261;-66
2023/09/02 05:21:57;;;;;;;28.53;12.70;;;;;;;14.53;100.00;100386.22;5008703;28;20322;-66
2023/09/02 05:24:23;;;;;;;29.33;12.13;;;;;;;14.61;100.00;100384.88;5011599;28;20194;-67
2023/09/02 05:26:48;;;;;;;12.83;11.37;;;;;;;14.70;100.00;100397.25;5013142;28;20221;-67
2023/09/02 05:29:14;;;;;;;14.57;11.20;;;;;;;14.81;100.00;100399.09;5014048;28;20203;-67
2023/09/02 05:31:39;;;;;;;13.40;10.43;;;;;;;14.87;100.00;100403.03;4995523;28;20225;-67
2023/09/02 05:34:04;;;;;;;12.40;10.43;;;;;;;14.90;100.00;100402.84;5013269;28;20603;-67
2023/09/02 05:36:30;;;;;;;13.93;10.60;;;;;;;14.89;100.00;100401.19;5013128;28;20696;-67
2023/09/02 05:38:55;;;;;;;13.17;10.83;;;;;;;14.81;100.00;100401.69;5002460;28;20295;-68
2023/09/02 05:41:20;;;;;;;12.93;11.53;;;;;;;14.91;100.00;100394.97;5004824;28;20223;-67
2023/09/02 05:43:45;;;;;;;12.17;10.87;;;;;;;14.94;100.00;100399.09;5003241;28;20217;-67
2023/09/02 05:46:11;;;;;;;12.30;10.50;;;;;;;15.12;100.00;100403.03;5014057;28;20194;-65
2023/09/02 05:48:36;;;;;;;11.33;9.97;;;;;;;15.28;100.00;100414.91;5013970;28;20844;-67
2023/09/02 05:51:01;;;;;;;11.50;10.30;;;;;;;15.44;100.00;100412.94;5011888;28;20229;-67
2023/09/02 05:53:27;;;;;;;11.33;10.17;;;;;;;15.61;100.00;100408.31;5014184;28;20251;-66
2023/09/02 05:55:55;;;;;;;10.90;9.87;;;;;;;15.51;100.00;100415.09;5012978;28;20181;-66
2023/09/02 05:58:25;;;;;;;9.67;8.67;;;;;;;15.53;100.00;100402.81;5012388;28;20189;-67
2023/09/02 06:00:51;;;;;;;9.93;9.03;;;;;;;15.67;100.00;100409.66;5009418;28;20233;-67
2023/09/02 06:03:16;;;;;;;9.93;9.03;;;;;;;15.82;100.00;100411.97;5022922;28;20567;-66
2023/09/02 06:05:41;;;;;;;10.33;9.33;;;;;;;15.84;100.00;100416.22;5012974;28;20626;-68
2023/09/02 06:08:07;;;;;;;9.63;8.77;;;;;;;16.06;100.00;100413.78;5013777;28;20201;-67
2023/09/02 06:10:32;;;;;;;10.90;8.57;;;;;;;16.10;100.00;100412.59;5007503;28;20229;-67
2023/09/02 06:12:57;;;;;;;9.80;8.80;;;;;;;16.32;100.00;100410.19;5024805;28;20186;-67
2023/09/02 06:15:23;;;;;;;8.70;7.90;;;;;;;16.52;100.00;100406.94;5012864;28;20210;-67
2023/09/02 06:17:48;;;;;;;10.00;7.93;;;;;;;16.51;100.00;100412.25;5013310;28;20274;-67
2023/09/02 06:20:16;;;;;;;9.80;8.90;;;;;;;16.59;100.00;100422.88;5004839;28;20592;-66
2023/09/02 06:22:42;;;;;;;9.70;8.73;;;;;;;16.53;100.00;100420.75;5026219;28;20272;-68
2023/09/02 06:25:08;;;;;;;8.67;7.87;;;;;;;16.63;100.00;100416.50;5011457;28;20636;-67
2023/09/02 06:27:33;;;;;;;8.77;6.80;;;;;;;16.70;100.00;100414.31;5013197;28;20202;-68
2023/09/02 06:29:58;;;;;;;8.10;7.30;;;;;;;16.68;100.00;100413.56;5013226;28;20193;-67
2023/09/02 06:32:23;;;;;;;7.00;6.30;;;;;;;16.56;100.00;100404.94;5017897;28;20218;-67
2023/09/02 06:34:49;;;;;;;7.23;6.63;;;;;;;16.58;100.00;100410.84;5012626;28;20654;-67
2023/09/02 06:37:14;;;;;;;7.30;6.43;;;;;;;16.81;100.00;100419.50;5028341;28;20174;-67
2023/09/02 06:39:39;;;;;;;6.63;6.13;;;;;;;16.85;100.00;100412.31;5012147;28;20186;-66
2023/09/02 06:42:04;;;;;;;6.13;5.63;;;;;;;17.24;100.00;100411.03;5004008;28;20791;-67
2023/09/02 06:44:30;;;;;;;6.77;6.03;;;;;;;17.37;100.00;100412.69;5012428;28;20183;-67
2023/09/02 06:46:55;;;;;;;6.33;5.80;;;;;;;17.41;100.00;100414.09;5013269;28;20218;-67
2023/09/02 06:49:20;;;;;;;5.47;5.00;;;;;;;17.60;100.00;100416.09;5012829;28;20266;-67
2023/09/02 06:51:46;;;;;;;6.80;5.50;;;;;;;17.55;100.00;100420.81;5015948;28;20222;-67
2023/09/02 06:54:11;;;;;;;6.43;5.83;;;;;;;17.25;100.00;100424.84;5010171;28;20205;-67
2023/09/02 06:56:36;;;;;;;6.07;5.47;;;;;;;17.38;100.00;100432.53;5012622;28;20239;-68
2023/09/02 06:59:01;;;;;;;6.60;6.00;;;;;;;17.65;100.00;100442.56;5012451;28;20186;-68
2023/09/02 07:01:27;;;;;;;6.50;6.00;;;;;;;17.77;100.00;100447.72;5006662;28;20306;-67
2023/09/02 07:03:55;;;;;;;6.07;5.57;;;;;;;17.64;100.00;100440.91;5011153;28;20532;-68
2023/09/02 07:06:21;;;;;;;6.03;5.47;;;;;;;17.27;100.00;100452.38;5012199;28;20174;-67
2023/09/02 07:08:47;;;;;;;6.63;6.03;;;;;;;17.05;100.00;100455.81;4994851;28;20185;-67
2023/09/02 07:11:13;;;;;;;6.17;5.67;;;;;;;17.24;100.00;100457.00;5004382;28;20229;-67
2023/09/02 07:13:39;;;;;;;6.33;5.73;;;;;;;17.50;100.00;100452.41;5001313;28;20209;-67
2023/09/02 07:16:05;;;;;;;6.60;6.00;;;;;;;17.52;100.00;100455.69;5010603;28;20187;-67
2023/09/02 07:18:31;;;;;;;6.63;6.10;;;;;;;17.37;100.00;100465.50;5012528;28;20223;-66
2023/09/02 07:21:01;;;;;;;7.23;6.30;;;;;;;17.16;100.00;100468.00;5009562;28;20299;-66
2023/09/02 07:23:28;;;;;;;6.47;5.73;;;;;;;17.65;100.00;100465.97;5006700;28;20229;-66
2023/09/02 07:25:55;;;;;;;7.17;6.47;;;;;;;17.89;100.00;100476.19;5011504;28;20278;-67
2023/09/02 07:28:20;;;;;;;6.60;6.10;;;;;;;18.06;100.00;100479.28;5012053;28;20189;-67
2023/09/02 07:30:45;;;;;;;7.80;7.00;;;;;;;17.84;100.00;100480.94;4987730;28;20221;-67
2023/09/02 07:33:10;;;;;;;7.40;6.90;;;;;;;17.77;100.00;100486.75;5030999;28;20213;-67
2023/09/02 07:35:37;;;;;;;8.77;8.07;;;;;;;17.92;100.00;100490.72;5031659;28;20185;-66
2023/09/02 07:38:06;;;;;;;8.00;7.23;;;;;;;17.76;100.00;100493.72;5029424;28;20560;-66
2023/09/02 07:40:31;;;;;;;8.43;7.73;;;;;;;17.93;100.00;100497.59;5019149;28;20269;-66
2023/09/02 07:43:02;;;;;;;8.10;7.50;;;;;;;18.20;100.00;100499.81;5022643;28;20533;-67
2023/09/02 07:45:28;;;;;;;8.50;7.70;;;;;;;18.33;100.00;100491.00;4993906;28;20178;-67
2023/09/02 07:47:53;;;;;;;9.70;8.70;;;;;;;18.54;100.00;100498.84;5011512;28;20281;-67
2023/09/02 07:50:19;;;;;;;8.50;7.80;;;;;;;18.60;100.00;100498.34;5004039;28;20556;-68
2023/09/02 07:52:44;;;;;;;8.17;7.57;;;;;;;19.13;100.00;100496.66;5024073;28;20213;-68
2023/09/02 07:55:09;;;;;;;8.60;7.83;;;;;;;19.58;100.00;100498.06;5012262;28;20214;-67
2023/09/02 07:57:34;;;;;;;7.00;6.40;;;;;;;19.44;100.00;100494.84;5014567;28;20231;-68
2023/09/02 08:00:00;;;;;;;7.37;6.77;;;;;;;19.40;100.00;100497.84;5015744;28;20639;-68
2023/09/02 08:02:25;;;;;;;7.40;6.90;;;;;;;19.43;100.00;100505.41;5007639;28;20350;-68
2023/09/02 08:04:50;;;;;;;7.80;7.30;;;;;;;19.28;100.00;100505.75;5015572;28;20179;-68
2023/09/02 08:07:16;;;;;;;7.63;7.03;;;;;;;19.26;100.00;100509.47;5015764;28;20532;-68
2023/09/02 08:09:41;;;;;;;7.90;7.40;;;;;;;19.23;100.00;100512.34;5016053;28;20187;-68
2023/09/02 08:12:07;;;;;;;7.80;7.23;;;;;;;19.21;100.00;100507.22;5037949;28;20212;-68
2023/09/02 08:14:33;;;;;;;8.93;8.23;;;;;;;19.01;100.00;100508.91;5035285;28;20197;-68
2023/09/02 08:16:58;;;;;;;10.10;9.27;;;;;;;18.77;100.00;100515.19;5033969;28;20182;-68
2023/09/02 08:19:23;;;;;;;10.03;9.17;;;;;;;18.65;100.00;100511.81;5035780;28;20216;-66
2023/09/02 08:21:48;;;;;;;9.17;8.47;;;;;;;18.68;100.00;100516.78;5025128;28;20245;-67
2023/09/02 08:24:14;;;;;;;8.67;8.03;;;;;;;19.00;100.00;100517.69;5036505;28;20177;-67
2023/09/02 08:26:41;;;;;;;8.07;7.43;;;;;;;19.81;100.00;100516.94;5035316;28;20335;-67
2023/09/02 08:29:06;;;;;;;7.47;6.87;;;;;;;20.15;100.00;100517.44;5035667;28;20189;-68
2023/09/02 08:31:31;;;;;;;6.87;6.47;;;;;;;19.73;100.00;100516.78;5024321;28;20716;-68
2023/09/02 08:33:57;;;;;;;7.00;6.40;;;;;;;19.97;100.00;100512.06;5018872;28;20195;-67
2023/09/02 08:36:22;;;;;;;6.90;6.37;;;;;;;20.20;100.00;100514.41;5030008;28;20187;-67
2023/09/02 08:38:47;;;;;;;6.20;5.67;;;;;;;19.89;100.00;100514.50;5013936;28;20183;-67
2023/09/02 08:41:24;;;;;;;6.17;5.57;;;;;;;20.59;100.00;100508.34;5028949;28;20230;-67
2023/09/02 08:43:53;;;;;;;6.17;5.57;;;;;;;20.55;100.00;100507.00;5032119;28;20320;-67
2023/09/02 08:46:20;;;;;;;5.47;5.07;;;;;;;20.46;100.00;100509.47;5034225;28;20638;-67
2023/09/02 08:48:47;;;;;;;5.70;5.20;;;;;;;20.23;100.00;100513.31;5034840;28;20284;-67
2023/09/02 08:51:14;;;;;;;5.00;4.27;;;;;;;21.05;100.00;100521.66;5023890;28;20308;-68
2023/09/02 08:53:40;;;;;;;4.10;3.80;;;;;;;23.72;100.00;100512.41;5021116;28;20229;-66
2023/09/02 08:56:07;;;;;;;4.47;4.10;;;;;;;24.82;100.00;100514.84;5014443;28;20181;-66
2023/09/02 08:58:34;;;;;;;3.63;3.03;;;;;;;27.37;93.74;100520.22;5014799;28;20502;-67
2023/09/02 09:01:01;;;;;;;3.45;3.15;;;;;;;24.39;100.00;100527.31;5016253;28;20229;-67
2023/09/02 09:03:29;;;;;;;3.80;3.50;;;;;;;24.36;100.00;100525.00;5027273;28;20190;-66
2023/09/02 09:05:57;;;;;;;3.10;2.90;;;;;;;25.25;100.00;100527.72;5033815;28;20334;-67
2023/09/02 09:08:23;;;;;;;2.90;2.70;;;;;;;25.88;100.00;100527.78;5033706;28;20252;-67
2023/09/02 09:10:50;;;;;;;3.15;2.63;;;;;;;25.30;100.00;100533.28;5023943;28;20233;-67
2023/09/02 09:13:17;;;;;;;3.42;3.17;;;;;;;26.17;100.00;100534.22;5013253;28;20201;-66
2023/09/02 09:15:43;;;;;;;3.00;2.80;;;;;;;28.02;88.18;100544.16;5013754;28;20657;-67
2023/09/02 09:18:11;;;;;;;3.03;2.83;;;;;;;28.70;81.77;100556.19;5012391;28;20278;-67
2023/09/02 09:20:37;;;;;;;3.20;3.00;;;;;;;29.09;74.00;100544.22;5011180;28;20237;-67
2023/09/02 09:23:09;;;;;;;2.72;2.53;;;;;;;27.70;82.72;100540.16;5031511;28;20247;-67
2023/09/02 09:25:37;;;;;;;4.57;2.25;;;;;;;28.45;82.24;100532.75;5032420;28;20178;-67
2023/09/02 09:28:12;;;;;;;2.88;2.67;;;;;;;27.62;85.29;100533.13;5034128;28;20293;-67
2023/09/02 09:30:38;;;;;;;3.67;2.38;;;;;;;26.81;92.46;100531.22;5020890;28;20272;-67
2023/09/02 09:33:07;;;;;;;2.20;2.00;;;;;;;28.40;86.33;100529.06;5024655;28;20585;-67
2023/09/02 09:35:33;;;;;;;3.03;2.70;;;;;;;28.85;75.35;100534.91;5014008;28;20544;-67
2023/09/02 09:38:00;;;;;;;2.33;2.13;;;;;;;29.20;75.02;100540.22;5012480;28;20625;-67
2023/09/02 09:40:35;;;;;;;2.70;2.50;;;;;;;28.46;75.95;100539.69;5009934;28;20244;-68
2023/09/02 09:43:14;;;;;;;3.00;2.80;;;;;;;30.05;64.46;100552.38;5025413;28;20183;-66
2023/09/02 09:45:51;;;;;;;2.30;2.10;;;;;;;29.98;62.06;100547.06;5029872;28;20197;-67
2023/09/02 09:48:16;;;;;;;3.08;1.80;;;;;;;32.24;51.26;100553.06;5033891;28;20220;-67
2023/09/02 09:50:42;;;;;;;3.20;2.30;;;;;;;31.98;48.00;100557.53;5022848;28;20249;-67
2023/09/02 09:53:09;;;;;;;1.80;1.70;;;;;;;31.14;54.65;100557.47;5023948;28;20186;-66
2023/09/02 09:55:36;;;;;;;3.55;1.90;;;;;;;30.72;57.09;100552.41;5013284;28;20237;-66
2023/09/02 09:58:02;;;;;;;7.97;3.00;;;;;;;31.04;57.75;100553.38;5028383;28;20210;-67
2023/09/02 10:00:28;;;;;;;2.08;1.90;;;;;;;31.03;55.26;100550.94;5008975;28;20698;-67
2023/09/02 10:02:58;;;;;;;3.30;2.60;;;;;;;31.19;53.11;100555.00;5032487;28;20658;-66
2023/09/02 10:05:28;;;;;;;2.00;1.90;;;;;;;30.36;58.40;100553.63;5032846;28;20193;-68
2023/09/02 10:08:04;;;;;;;2.08;1.90;;;;;;;28.94;66.88;100549.63;5033253;28;20178;-67
2023/09/02 10:10:38;;;;;;;1.92;1.83;;;;;;;30.10;61.58;100557.88;5020953;28;20779;-67
2023/09/02 10:13:04;;;;;;;2.53;2.00;;;;;;;31.26;60.79;100553.16;5012258;28;20675;-67
2023/09/02 10:15:30;;;;;;;4.40;1.90;;;;;;;31.52;52.40;100565.50;5012895;28;20179;-66
2023/09/02 10:18:00;;;;;;;2.95;1.60;;;;;;;29.03;67.71;100555.59;5011563;28;20179;-67
2023/09/02 10:20:28;;;;;;;3.65;2.30;;;;;;;28.79;78.31;100555.03;5024218;28;20550;-67
2023/09/02 10:22:56;;;;;;;2.88;1.80;;;;;;;30.34;61.18;100553.00;5045058;28;20245;-66
2023/09/02 10:25:29;;;;;;;1.70;1.60;;;;;;;28.96;69.99;100542.34;5032327;28;20192;-66
2023/09/02 10:28:03;;;;;;;1.58;1.48;;;;;;;29.50;64.69;100549.72;5032728;28;20182;-67
2023/09/02 10:30:51;;;;;;;1.65;1.55;;;;;;;30.45;60.95;100547.09;5021828;28;20790;-67
2023/09/02 10:33:43;;;;;;;1.65;1.55;;;;;;;28.78;67.16;100542.00;5010772;28;20183;-66
2023/09/02 10:36:09;;;;;;;1.80;1.38;;;;;;;27.28;79.45;100536.34;5012368;28;20217;-66
2023/09/02 10:38:41;;;;;;;1.48;1.20;;;;;;;25.97;93.00;100541.72;5011577;28;20182;-65
2023/09/02 10:41:09;;;;;;;1.60;1.33;;;;;;;24.87;99.26;100533.56;5019769;28;20584;-66
2023/09/02 10:43:35;;;;;;;2.88;1.35;;;;;;;24.78;100.00;100522.25;5019476;28;20281;-66
2023/09/02 10:46:02;;;;;;;1.73;1.63;;;;;;;24.25;100.00;100519.09;5031943;28;20684;-66
2023/09/02 10:48:28;;;;;;;1.33;1.30;;;;;;;24.01;100.00;100533.00;5031382;28;20527;-66
2023/09/02 10:50:54;;;;;;;1.30;1.20;;;;;;;23.84;100.00;100525.06;5021000;28;20225;-66
2023/09/02 10:53:19;;;;;;;1.65;1.55;;;;;;;23.57;100.00;100530.53;5010059;28;20253;-66
2023/09/02 10:55:58;;;;;;;2.83;1.35;;;;;;;23.35;100.00;100528.31;5011747;28;20182;-67
2023/09/02 10:58:24;;;;;;;2.47;1.73;;;;;;;23.35;100.00;100525.69;5012402;28;20182;-66
2023/09/02 11:00:52;;;;;;;2.20;1.95;;;;;;;22.78;100.00;100525.34;5012124;28;20235;-66
2023/09/02 11:03:44;;;;;;;3.20;1.73;;;;;;;22.50;100.00;100523.69;5030695;28;20182;-66
2023/09/02 11:06:12;;;;;;;2.10;1.40;;;;;;;22.84;100.00;100530.78;5031586;28;20511;-66
2023/09/02 11:08:49;;;;;;;2.03;1.53;;;;;;;22.80;100.00;100521.59;5031887;28;20181;-67
2023/09/02 11:11:18;;;;;;;2.53;1.20;;;;;;;22.92;100.00;100531.84;5030529;28;20225;-66
2023/09/02 11:14:08;;;;;;;1.73;1.40;;;;;;;22.79;100.00;100529.63;5017589;28;20214;-67